createdAt,value
2023-12-18T00:00:14.656Z,100449.69
2023-12-18T00:02:43.083Z,100446.13
2023-12-18T00:05:11.517Z,100443.59
2023-12-18T00:07:41.031Z,100438.22
2023-12-18T00:10:09.863Z,100446.41
2023-12-18T00:12:38.155Z,100452.88
2023-12-18T00:15:08.267Z,100444.69
2023-12-18T00:17:36.618Z,100443.00
2023-12-18T00:20:05.661Z,100441.19
2023-12-18T00:22:33.692Z,100433.94
2023-12-18T00:25:03.385Z,100435.81
2023-12-18T00:27:31.301Z,100442.00
2023-12-18T00:29:59.285Z,100437.50
2023-12-18T00:32:27.217Z,100435.66
2023-12-18T00:34:55.186Z,100421.38
2023-12-18T00:37:23.518Z,100429.44
2023-12-18T00:39:51.422Z,100427.75
2023-12-18T00:42:20.686Z,100441.19
2023-12-18T00:44:48.615Z,100451.06
2023-12-18T00:47:16.479Z,100449.94
2023-12-18T00:49:44.461Z,100458.13
2023-12-18T00:52:12.442Z,100449.22
2023-12-18T00:54:40.459Z,100450.91
2023-12-18T00:57:08.432Z,100460.81
2023-12-18T00:59:37.706Z,100468.75
2023-12-18T01:02:05.949Z,100456.28
2023-12-18T01:04:33.897Z,100453.59
2023-12-18T01:07:01.902Z,100453.75
2023-12-18T01:09:29.836Z,100460.09
2023-12-18T01:11:57.729Z,100449.34
2023-12-18T01:14:25.667Z,100454.00
2023-12-18T01:16:55.786Z,100454.88
2023-12-18T01:19:24.204Z,100451.31
2023-12-18T01:21:52.266Z,100446.22
2023-12-18T01:24:20.189Z,100456.84
2023-12-18T01:26:48.144Z,100459.63
2023-12-18T01:29:16.032Z,100463.19
2023-12-18T01:31:43.946Z,100470.38
2023-12-18T01:34:13.347Z,100473.91
2023-12-18T01:36:41.359Z,100475.88
2023-12-18T01:39:09.294Z,100479.44
2023-12-18T01:41:37.179Z,100483.94
2023-12-18T01:44:05.293Z,100483.94
2023-12-18T01:46:37.038Z,100480.41
2023-12-18T01:49:05.222Z,100474.19
2023-12-18T01:51:34.576Z,100462.47
2023-12-18T01:54:03.183Z,100462.22
2023-12-18T01:56:32.843Z,100455.84
2023-12-18T01:59:01.604Z,100434.41
2023-12-18T02:01:30.401Z,100453.16
2023-12-18T02:03:58.727Z,100451.56
2023-12-18T02:06:27.918Z,100451.19
2023-12-18T02:08:57.556Z,100459.22
2023-12-18T02:11:25.682Z,100453.03
2023-12-18T02:13:53.796Z,100449.34
2023-12-18T02:16:23.295Z,100440.44
2023-12-18T02:18:51.255Z,100425.00
2023-12-18T02:21:23.454Z,100444.84
2023-12-18T02:23:53.199Z,100445.69
2023-12-18T02:26:22.013Z,100451.19
2023-12-18T02:28:49.963Z,100456.28
2023-12-18T02:31:19.398Z,100444.13
2023-12-18T02:33:50.106Z,100435.63
2023-12-18T02:36:18.846Z,100439.31
2023-12-18T02:38:46.893Z,100436.78
2023-12-18T02:41:16.195Z,100442.16
2023-12-18T02:43:44.138Z,100444.84
2023-12-18T02:46:12.040Z,100448.50
2023-12-18T02:48:40.271Z,100439.72
2023-12-18T02:51:08.488Z,100450.47
2023-12-18T02:53:36.409Z,100446.09
2023-12-18T02:56:04.508Z,100446.91
2023-12-18T02:58:34.012Z,100448.78
2023-12-18T03:01:02.076Z,100446.09
2023-12-18T03:03:30.059Z,100444.38
2023-12-18T03:05:57.959Z,100421.56
2023-12-18T03:08:25.832Z,100457.81
2023-12-18T03:10:53.701Z,100456.94
2023-12-18T03:13:21.589Z,100455.13
2023-12-18T03:15:50.933Z,100449.75
2023-12-18T03:18:19.009Z,100443.06
2023-12-18T03:20:46.951Z,100452.28
2023-12-18T03:23:14.951Z,100454.88
2023-12-18T03:25:42.874Z,100454.72
2023-12-18T03:28:10.770Z,100440.44
2023-12-18T03:30:38.729Z,100447.53
2023-12-18T03:33:08.373Z,100456.28
2023-12-18T03:35:36.492Z,100467.03
2023-12-18T03:38:04.564Z,100460.69
2023-12-18T03:40:32.436Z,100461.53
2023-12-18T03:43:00.300Z,100462.41
2023-12-18T03:45:28.267Z,100458.84
2023-12-18T03:47:56.200Z,100459.72
2023-12-18T03:50:25.477Z,100459.72
2023-12-18T03:52:53.359Z,100449.78
2023-12-18T03:55:21.250Z,100429.06
2023-12-18T03:57:49.203Z,100471.28
2023-12-18T04:00:18.632Z,100482.03
2023-12-18T04:02:46.597Z,100481.91
2023-12-18T04:05:14.536Z,100480.19
2023-12-18T04:07:43.996Z,100473.66
2023-12-18T04:10:12.707Z,100487.28
2023-12-18T04:12:40.964Z,100481.19
2023-12-18T04:15:10.327Z,100482.16
2023-12-18T04:17:38.409Z,100482.16
2023-12-18T04:20:07.715Z,100484.97
2023-12-18T04:22:35.617Z,100478.78
2023-12-18T04:25:05.258Z,100493.03
2023-12-18T04:27:33.244Z,100482.56
2023-12-18T04:30:01.162Z,100478.03
2023-12-18T04:32:29.113Z,100490.63
2023-12-18T04:34:56.986Z,100496.97
2023-12-18T04:37:24.958Z,100493.44
2023-12-18T04:39:52.894Z,100489.06
2023-12-18T04:42:22.173Z,100490.75
2023-12-18T04:44:50.094Z,100487.19
2023-12-18T04:47:18.078Z,100493.44
2023-12-18T04:49:46.035Z,100491.75
2023-12-18T04:52:14.177Z,100484.41
2023-12-18T04:54:42.110Z,100487.94
2023-12-18T04:57:10.082Z,100487.78
2023-12-18T04:59:39.354Z,100494.03
2023-12-18T05:02:07.277Z,100480.72
2023-12-18T05:04:35.286Z,100481.47
2023-12-18T05:07:03.215Z,100482.28
2023-12-18T05:09:31.182Z,100492.06
2023-12-18T05:11:59.088Z,100491.09
2023-12-18T05:14:27.025Z,100492.91
2023-12-18T05:16:56.263Z,100488.41
2023-12-18T05:19:25.530Z,100494.63
2023-12-18T05:21:53.498Z,100492.91
2023-12-18T05:24:21.434Z,100491.94
2023-12-18T05:26:49.314Z,100490.06
2023-12-18T05:29:17.251Z,100499.00
2023-12-18T05:31:45.213Z,100491.94
2023-12-18T05:34:14.660Z,100506.34
2023-12-18T05:36:42.694Z,100500.97
2023-12-18T05:39:10.629Z,100506.19
2023-12-18T05:41:38.500Z,100510.75
2023-12-18T05:44:06.548Z,100513.53
2023-12-18T05:46:34.428Z,100520.72
2023-12-18T05:49:02.436Z,100517.19
2023-12-18T05:51:31.856Z,100529.78
2023-12-18T05:53:59.900Z,100535.41
2023-12-18T05:56:27.769Z,100528.06
2023-12-18T05:58:57.082Z,100530.91
2023-12-18T06:01:25.121Z,100532.72
2023-12-18T06:03:53.309Z,100538.09
2023-12-18T06:06:21.368Z,100536.38
2023-12-18T06:08:50.663Z,100509.03
2023-12-18T06:11:18.582Z,100541.75
2023-12-18T06:13:47.127Z,100548.97
2023-12-18T06:16:15.168Z,100548.13
2023-12-18T06:18:43.788Z,100549.09
2023-12-18T06:21:11.866Z,100550.81
2023-12-18T06:23:39.785Z,100551.78
2023-12-18T06:26:09.029Z,100564.25
2023-12-18T06:28:36.969Z,100570.44
2023-12-18T06:31:05.205Z,100535.72
2023-12-18T06:33:33.420Z,100566.78
2023-12-18T06:36:01.348Z,100573.56
2023-12-18T06:38:29.807Z,100573.47
2023-12-18T06:40:57.664Z,100568.97
2023-12-18T06:43:26.969Z,100569.81
2023-12-18T06:45:54.871Z,100570.63
2023-12-18T06:48:22.940Z,100575.03
2023-12-18T06:50:50.939Z,100570.63
2023-12-18T06:53:18.919Z,100583.97
2023-12-18T06:55:46.830Z,100587.50
2023-12-18T06:58:14.746Z,100599.94
2023-12-18T07:00:44.610Z,100604.34
2023-12-18T07:03:12.645Z,100607.13
2023-12-18T07:05:40.645Z,100613.25
2023-12-18T07:08:09.095Z,100599.81
2023-12-18T07:10:36.976Z,100613.25
2023-12-18T07:13:05.217Z,100625.66
2023-12-18T07:15:33.279Z,100611.38
2023-12-18T07:18:02.778Z,100608.69
2023-12-18T07:20:30.702Z,100603.31
2023-12-18T07:22:58.713Z,100595.16
2023-12-18T07:25:26.602Z,100598.41
2023-12-18T07:27:54.521Z,100607.81
2023-12-18T07:30:22.750Z,100617.91
2023-12-18T07:32:50.815Z,100628.28
2023-12-18T07:35:20.483Z,100635.81
2023-12-18T07:37:48.424Z,100622.72
2023-12-18T07:40:16.537Z,100626.72
2023-12-18T07:42:44.770Z,100627.69
2023-12-18T07:45:13.458Z,100599.06
2023-12-18T07:47:42.468Z,100633.53
2023-12-18T07:50:11.321Z,100635.34
2023-12-18T07:52:41.002Z,100630.97
2023-12-18T07:55:10.250Z,100631.09
2023-12-18T07:57:38.281Z,100629.25
2023-12-18T08:00:08.480Z,100624.75
2023-12-18T08:02:39.839Z,100630.28
2023-12-18T08:05:08.173Z,100642.59
2023-12-18T08:07:36.125Z,100645.28
2023-12-18T08:10:06.218Z,100642.31
2023-12-18T08:12:34.799Z,100642.91
2023-12-18T08:15:03.363Z,100639.25
2023-12-18T08:17:31.368Z,100631.88
2023-12-18T08:19:59.307Z,100637.97
2023-12-18T08:22:27.176Z,100641.38
2023-12-18T08:24:55.836Z,100642.25
2023-12-18T08:27:25.099Z,100643.97
2023-12-18T08:29:53.085Z,100641.97
2023-12-18T08:32:20.938Z,100637.47
2023-12-18T08:34:49.512Z,100639.13
2023-12-18T08:37:17.506Z,100641.72
2023-12-18T08:39:45.434Z,100643.28
2023-12-18T08:42:13.354Z,100658.41
2023-12-18T08:44:42.695Z,100659.16
2023-12-18T08:47:10.591Z,100672.59
2023-12-18T08:49:38.701Z,100674.28
2023-12-18T08:52:08.820Z,100676.84
2023-12-18T08:54:37.080Z,100679.41
2023-12-18T08:57:05.554Z,100677.56
2023-12-18T08:59:33.527Z,100687.34
2023-12-18T09:02:02.846Z,100686.34
2023-12-18T09:04:30.782Z,100685.50
2023-12-18T09:06:59.021Z,100689.91
2023-12-18T09:09:27.320Z,100692.41
2023-12-18T09:11:55.381Z,100712.13
2023-12-18T09:14:23.244Z,100696.91
2023-12-18T09:16:51.165Z,100719.06
2023-12-18T09:19:20.531Z,100711.88
2023-12-18T09:21:49.954Z,100715.41
2023-12-18T09:24:17.875Z,100710.91
2023-12-18T09:26:45.934Z,100720.78
2023-12-18T09:29:14.053Z,100715.31
2023-12-18T09:31:42.326Z,100725.09
2023-12-18T09:34:10.482Z,100722.25
2023-12-18T09:36:39.875Z,100730.31
2023-12-18T09:39:07.868Z,100736.56
2023-12-18T09:41:35.778Z,100729.34
2023-12-18T09:44:03.920Z,100733.00
2023-12-18T09:46:32.174Z,100738.84
2023-12-18T09:49:00.356Z,100738.59
2023-12-18T09:51:28.449Z,100734.78
2023-12-18T09:53:57.887Z,100727.16
2023-12-18T09:56:26.193Z,100722.91
2023-12-18T09:58:56.880Z,100737.41
2023-12-18T10:01:25.539Z,100723.94
2023-12-18T10:03:53.592Z,100723.28
2023-12-18T10:06:22.440Z,100717.03
2023-12-18T10:08:51.591Z,100721.56
2023-12-18T10:11:31.295Z,100722.41
2023-12-18T10:13:59.619Z,100724.25
2023-12-18T10:16:27.850Z,100720.47
2023-12-18T10:18:55.812Z,100710.25
2023-12-18T10:21:25.526Z,100710.16
2023-12-18T10:23:54.534Z,100710.16
2023-12-18T10:26:23.240Z,100719.03
2023-12-18T10:28:53.579Z,100721.88
2023-12-18T10:31:21.848Z,100719.34
2023-12-18T10:33:50.930Z,100732.91
2023-12-18T10:36:19.498Z,100738.44
2023-12-18T10:38:50.735Z,100746.50
2023-12-18T10:41:21.748Z,100726.59
2023-12-18T10:43:51.677Z,100752.16
2023-12-18T10:46:22.717Z,100752.16
2023-12-18T10:48:51.352Z,100747.28
2023-12-18T10:51:21.874Z,100759.50
2023-12-18T10:53:50.841Z,100735.31
2023-12-18T10:56:22.498Z,100728.91
2023-12-18T10:58:52.274Z,100688.19
2023-12-18T11:01:22.333Z,100725.50
2023-12-18T11:03:50.883Z,100731.88
2023-12-18T11:06:20.366Z,100736.41
2023-12-18T11:08:49.268Z,100735.56
2023-12-18T11:11:19.519Z,100744.50
2023-12-18T11:14:01.923Z,100749.88
2023-12-18T11:16:42.565Z,100739.13
2023-12-18T11:19:23.215Z,100739.94
2023-12-18T11:21:55.401Z,100734.56
2023-12-18T11:24:23.494Z,100731.03
2023-12-18T11:26:53.351Z,100730.03
2023-12-18T11:29:51.018Z,100698.69
2023-12-18T11:32:47.244Z,100713.19
2023-12-18T11:35:16.726Z,100710.50
2023-12-18T11:37:47.639Z,100705.09
2023-12-18T11:40:39.785Z,100695.22
2023-12-18T11:43:09.456Z,100695.31
2023-12-18T11:45:40.467Z,100693.50
2023-12-18T11:48:15.282Z,100689.94
2023-12-18T11:50:43.769Z,100690.94
2023-12-18T11:53:32.525Z,100679.94
2023-12-18T11:56:00.885Z,100689.94
2023-12-18T11:58:29.466Z,100691.81
2023-12-18T12:00:58.192Z,100700.59
2023-12-18T12:03:28.964Z,100681.56
2023-12-18T12:05:59.640Z,100686.28
2023-12-18T12:08:27.771Z,100687.13
2023-12-18T12:10:58.519Z,100695.22
2023-12-18T12:13:28.012Z,100693.38
2023-12-18T12:15:58.133Z,100690.09
2023-12-18T12:18:29.391Z,100700.44
2023-12-18T12:20:58.027Z,100701.16
2023-12-18T12:23:26.704Z,100719.16
2023-12-18T12:25:58.850Z,100709.09
2023-12-18T12:28:29.450Z,100707.38
2023-12-18T12:30:57.721Z,100703.72
2023-12-18T12:33:25.869Z,100694.78
2023-12-18T12:35:55.440Z,100717.03
2023-12-18T12:38:23.329Z,100733.31
2023-12-18T12:40:51.313Z,100730.63
2023-12-18T12:43:19.182Z,100723.28
2023-12-18T12:45:47.180Z,100711.38
2023-12-18T12:48:16.001Z,100717.22
2023-12-18T12:50:45.348Z,100726.75
2023-12-18T12:53:15.288Z,100729.13
2023-12-18T12:55:44.253Z,100742.31
2023-12-18T12:58:13.386Z,100737.22
2023-12-18T13:00:41.409Z,100741.50
2023-12-18T13:03:09.857Z,100746.03
2023-12-18T13:05:38.543Z,100736.13
2023-12-18T13:08:06.658Z,100738.81
2023-12-18T13:10:35.973Z,100734.41
2023-12-18T13:13:04.115Z,100732.69
2023-12-18T13:15:32.097Z,100731.81
2023-12-18T13:18:00.037Z,100736.22
2023-12-18T13:20:29.345Z,100737.22
2023-12-18T13:22:57.992Z,100732.84
2023-12-18T13:25:25.896Z,100730.25
2023-12-18T13:27:55.438Z,100719.50
2023-12-18T13:30:23.593Z,100726.00
2023-12-18T13:32:51.657Z,100726.00
2023-12-18T13:35:20.086Z,100716.94
2023-12-18T13:37:48.413Z,100706.34
2023-12-18T13:40:16.438Z,100712.69
2023-12-18T13:42:44.376Z,100711.97
2023-12-18T13:45:13.873Z,100711.13
2023-12-18T13:47:42.227Z,100706.59
2023-12-18T13:50:11.531Z,100677.22
2023-12-18T13:52:40.005Z,100692.69
2023-12-18T13:55:08.707Z,100696.38
2023-12-18T13:57:43.509Z,100690.28
2023-12-18T14:00:21.103Z,100686.88
2023-12-18T14:02:51.019Z,100673.69
2023-12-18T14:05:19.973Z,100663.91
2023-12-18T14:07:48.382Z,100663.91
2023-12-18T14:10:16.487Z,100664.91
2023-12-18T14:12:44.698Z,100662.34
2023-12-18T14:15:13.018Z,100660.66
2023-12-18T14:17:42.435Z,100663.44
2023-12-18T14:20:11.939Z,100650.88
2023-12-18T14:22:40.029Z,100649.28
2023-12-18T14:25:09.161Z,100653.81
2023-12-18T14:27:37.644Z,100644.31
2023-12-18T14:30:06.579Z,100656.66
2023-12-18T14:32:34.681Z,100637.09
2023-12-18T14:35:04.043Z,100653.22
2023-12-18T14:37:31.954Z,100654.06
2023-12-18T14:40:01.185Z,100658.34
2023-12-18T14:42:29.335Z,100651.84
2023-12-18T14:44:57.605Z,100649.88
2023-12-18T14:47:25.555Z,100645.06
2023-12-18T14:49:52.532Z,100625.25
2023-12-18T14:52:21.805Z,100621.56
2023-12-18T14:54:49.845Z,100602.72
2023-12-18T14:57:17.865Z,100605.41
2023-12-18T14:59:45.757Z,100612.50
2023-12-18T15:02:13.738Z,100620.59
2023-12-18T15:04:41.653Z,100607.84
2023-12-18T15:07:09.800Z,100620.44
2023-12-18T15:09:39.176Z,100615.91
2023-12-18T15:12:07.924Z,100622.84
2023-12-18T15:14:35.800Z,100617.34
2023-12-18T15:17:06.149Z,100589.00
2023-12-18T15:19:36.929Z,100606.03
2023-12-18T15:22:05.786Z,100587.75
2023-12-18T15:24:33.804Z,100583.94
2023-12-18T15:27:03.203Z,100575.16
2023-12-18T15:29:31.635Z,100572.59
2023-12-18T15:31:59.561Z,100578.25
2023-12-18T15:34:27.836Z,100575.56
2023-12-18T15:36:55.893Z,100563.94
2023-12-18T15:39:24.832Z,100574.69
2023-12-18T15:41:53.166Z,100569.19
2023-12-18T15:44:22.484Z,100552.19
2023-12-18T15:46:50.426Z,100553.06
2023-12-18T15:49:19.284Z,100555.75
2023-12-18T15:51:47.416Z,100553.91
2023-12-18T15:54:15.434Z,100556.44
2023-12-18T15:56:45.476Z,100570.88
2023-12-18T15:59:14.838Z,100573.44
2023-12-18T16:01:47.574Z,100572.31
2023-12-18T16:04:16.101Z,100552.63
2023-12-18T16:06:44.463Z,100575.88
2023-12-18T16:09:12.822Z,100551.94
2023-12-18T16:11:41.626Z,100543.84
2023-12-18T16:14:10.784Z,100539.34
2023-12-18T16:16:38.735Z,100528.69
2023-12-18T16:19:08.367Z,100520.63
2023-12-18T16:21:36.318Z,100510.00
2023-12-18T16:24:04.249Z,100496.56
2023-12-18T16:26:35.806Z,100432.34
2023-12-18T16:29:06.242Z,100477.72
2023-12-18T16:31:34.357Z,100470.63
2023-12-18T16:34:02.858Z,100459.88
2023-12-18T16:36:32.429Z,100449.97
2023-12-18T16:39:00.441Z,100433.25
2023-12-18T16:41:31.905Z,100443.59
2023-12-18T16:44:00.048Z,100447.28
2023-12-18T16:46:37.324Z,100448.13
2023-12-18T16:49:11.422Z,100433.66
2023-12-18T16:51:41.105Z,100425.59
2023-12-18T16:54:09.089Z,100425.59
2023-12-18T16:56:37.908Z,100416.81
2023-12-18T16:59:06.244Z,100442.88
2023-12-18T17:01:34.243Z,100433.97
2023-12-18T17:04:02.481Z,100419.78
2023-12-18T17:06:30.556Z,100422.47
2023-12-18T17:08:59.990Z,100415.00
2023-12-18T17:11:27.859Z,100414.72
2023-12-18T17:13:55.794Z,100411.19
2023-12-18T17:16:23.787Z,100412.16
2023-12-18T17:18:52.106Z,100410.47
2023-12-18T17:21:20.576Z,100407.91
2023-12-18T17:23:48.671Z,100403.53
2023-12-18T17:26:17.964Z,100397.16
2023-12-18T17:28:45.922Z,100381.00
2023-12-18T17:31:13.910Z,100374.66
2023-12-18T17:33:42.042Z,100377.47
2023-12-18T17:36:10.032Z,100385.69
2023-12-18T17:38:37.932Z,100380.44
2023-12-18T17:41:06.002Z,100381.28
2023-12-18T17:43:35.565Z,100383.13
2023-12-18T17:46:03.563Z,100374.34
2023-12-18T17:48:31.799Z,100365.44
2023-12-18T17:51:01.749Z,100383.56
2023-12-18T17:53:29.742Z,100369.56
2023-12-18T17:55:57.688Z,100346.50
2023-12-18T17:58:25.724Z,100324.41
2023-12-18T18:00:55.124Z,100311.81
2023-12-18T18:03:23.139Z,100296.91
2023-12-18T18:05:51.200Z,100293.50
2023-12-18T18:08:19.175Z,100284.75
2023-12-18T18:10:47.940Z,100290.25
2023-12-18T18:13:16.086Z,100291.25
2023-12-18T18:15:44.558Z,100297.88
2023-12-18T18:18:14.141Z,100304.13
2023-12-18T18:20:42.206Z,100302.56
2023-12-18T18:23:10.156Z,100310.78
2023-12-18T18:25:40.154Z,100311.59
2023-12-18T18:28:09.061Z,100235.22
2023-12-18T18:30:37.384Z,100274.41
2023-12-18T18:33:07.792Z,100242.28
2023-12-18T18:35:38.825Z,100211.88
2023-12-18T18:38:06.692Z,100250.66
2023-12-18T18:40:34.625Z,100248.13
2023-12-18T18:43:02.518Z,100253.63
2023-12-18T18:45:30.479Z,100240.31
2023-12-18T18:47:58.509Z,100233.25
2023-12-18T18:50:26.825Z,100230.72
2023-12-18T18:52:56.136Z,100233.41
2023-12-18T18:55:24.071Z,100238.91
2023-12-18T18:57:52.138Z,100223.78
2023-12-18T19:00:20.457Z,100225.75
2023-12-18T19:02:48.396Z,100208.22
2023-12-18T19:05:17.589Z,100215.28
2023-12-18T19:07:47.512Z,100204.81
2023-12-18T19:10:17.079Z,100195.91
2023-12-18T19:12:45.438Z,100184.47
2023-12-18T19:15:13.810Z,100192.66
2023-12-18T19:17:43.351Z,100179.38
2023-12-18T19:20:11.955Z,100178.50
2023-12-18T19:22:41.407Z,100175.13
2023-12-18T19:25:09.577Z,100155.63
2023-12-18T19:27:40.049Z,100146.72
2023-12-18T19:30:09.353Z,100140.63
2023-12-18T19:32:37.330Z,100129.44
2023-12-18T19:35:06.389Z,100127.31
2023-12-18T19:37:34.377Z,100135.38
2023-12-18T19:40:02.760Z,100141.78
2023-12-18T19:42:30.816Z,100141.78
2023-12-18T19:45:00.154Z,100135.66
2023-12-18T19:47:28.201Z,100106.13
2023-12-18T19:49:56.350Z,100124.91
2023-12-18T19:52:24.342Z,100104.44
2023-12-18T19:54:52.438Z,99947.56
2023-12-18T19:57:20.528Z,100092.00
2023-12-18T19:59:49.387Z,100078.16
2023-12-18T20:02:18.844Z,100077.00
2023-12-18T20:04:46.877Z,100083.34
2023-12-18T20:07:14.837Z,100023.56
2023-12-18T20:09:43.686Z,100054.25
2023-12-18T20:12:11.830Z,100078.31
2023-12-18T20:14:40.276Z,100067.84
2023-12-18T20:17:08.265Z,100017.50
2023-12-18T20:19:37.955Z,100028.38
2023-12-18T20:22:06.140Z,99987.69
2023-12-18T20:24:34.803Z,100027.94
2023-12-18T20:27:03.015Z,100019.88
2023-12-18T20:29:33.737Z,100014.66
2023-12-18T20:32:03.238Z,100013.09
2023-12-18T20:34:31.344Z,99998.84
2023-12-18T20:37:00.878Z,100003.34
2023-12-18T20:39:28.938Z,99996.28
2023-12-18T20:41:57.071Z,99994.47
2023-12-18T20:44:24.949Z,99982.31
2023-12-18T20:46:52.991Z,99981.03
2023-12-18T20:49:21.061Z,99954.91
2023-12-18T20:51:49.191Z,99953.22
2023-12-18T20:54:18.518Z,99965.63
2023-12-18T20:56:46.486Z,99962.94
2023-12-18T20:59:14.392Z,99934.00
2023-12-18T21:01:42.462Z,99939.06
2023-12-18T21:04:10.567Z,99930.84
2023-12-18T21:06:38.807Z,99864.25
2023-12-18T21:09:06.972Z,99898.66
2023-12-18T21:11:36.764Z,99896.38
2023-12-18T21:14:04.664Z,99896.66
2023-12-18T21:16:32.620Z,99885.06
2023-12-18T21:19:01.316Z,99875.19
2023-12-18T21:21:29.393Z,99863.59
2023-12-18T21:23:57.275Z,99835.19
2023-12-18T21:26:25.188Z,99838.75
2023-12-18T21:28:55.055Z,99837.19
2023-12-18T21:31:23.016Z,99828.13
2023-12-18T21:33:51.059Z,99830.97
2023-12-18T21:36:20.290Z,99827.41
2023-12-18T21:38:48.297Z,99831.09
2023-12-18T21:41:16.222Z,99816.69
2023-12-18T21:43:45.298Z,99816.00
2023-12-18T21:46:16.664Z,99806.22
2023-12-18T21:48:44.839Z,99805.09
2023-12-18T21:51:14.037Z,99792.97
2023-12-18T21:53:42.012Z,99799.03
2023-12-18T21:56:12.503Z,99780.25
2023-12-18T21:58:41.488Z,99776.56
2023-12-18T22:01:09.463Z,99766.13
2023-12-18T22:03:38.851Z,99760.59
2023-12-18T22:06:07.208Z,99763.28
2023-12-18T22:08:35.146Z,99748.88
2023-12-18T22:11:03.032Z,99749.56
2023-12-18T22:13:31.313Z,99729.69
2023-12-18T22:15:59.268Z,99720.03
2023-12-18T22:18:27.473Z,99718.31
2023-12-18T22:21:04.545Z,99714.66
2023-12-18T22:23:40.155Z,99704.09
2023-12-18T22:26:08.083Z,99703.91
2023-12-18T22:28:35.992Z,99687.81
2023-12-18T22:31:04.302Z,99673.53
2023-12-18T22:33:32.389Z,99669.00
2023-12-18T22:36:01.777Z,99653.75
2023-12-18T22:38:29.720Z,99649.06
2023-12-18T22:40:57.923Z,99642.00
2023-12-18T22:43:26.030Z,99638.50
2023-12-18T22:45:54.139Z,99610.03
2023-12-18T22:48:23.482Z,99626.06
2023-12-18T22:50:51.510Z,99616.31
2023-12-18T22:53:22.183Z,99599.38
2023-12-18T22:55:51.608Z,99586.09
2023-12-18T22:58:19.545Z,99581.00
2023-12-18T23:00:47.567Z,99581.88
2023-12-18T23:03:15.485Z,99568.59
2023-12-18T23:05:43.449Z,99549.94
2023-12-18T23:08:11.396Z,99552.81
2023-12-18T23:10:40.726Z,99539.38
2023-12-18T23:13:08.820Z,99540.53
2023-12-18T23:15:36.837Z,99540.53
2023-12-18T23:18:05.381Z,99529.94
2023-12-18T23:20:36.185Z,99524.56
2023-12-18T23:23:04.363Z,99496.28
2023-12-18T23:25:32.396Z,99497.34
2023-12-18T23:28:02.048Z,99504.13
2023-12-18T23:30:30.063Z,99499.59
2023-12-18T23:32:58.501Z,99488.84
2023-12-18T23:35:26.472Z,99472.75
2023-12-18T23:37:54.410Z,99466.53
2023-12-18T23:40:22.440Z,99454.94
2023-12-18T23:42:50.323Z,99456.66
2023-12-18T23:45:19.631Z,99450.44
2023-12-18T23:47:48.996Z,99436.16
2023-12-18T23:50:17.861Z,99425.44
2023-12-18T23:52:46.403Z,99414.00
2023-12-18T23:55:14.741Z,99405.97
2023-12-18T23:57:43.495Z,99394.38
